createdAt,value
2018-11-13T00:01:33.519Z,93.38
2018-11-13T00:06:31.555Z,93.10
2018-11-13T00:11:28.980Z,92.26
2018-11-13T00:16:28.370Z,92.22
2018-11-13T00:21:25.739Z,92.13
2018-11-13T00:26:23.157Z,92.42
2018-11-13T00:31:20.526Z,93.00
2018-11-13T00:36:17.926Z,91.57
2018-11-13T00:41:15.325Z,92.27
2018-11-13T00:46:18.993Z,92.69
2018-11-13T00:51:16.427Z,93.81
2018-11-13T00:56:13.967Z,94.36
2018-11-13T01:01:11.407Z,95.26
2018-11-13T01:06:08.775Z,92.88
2018-11-13T01:11:06.142Z,92.52
2018-11-13T01:16:08.528Z,93.23
2018-11-13T01:21:06.054Z,94.13
2018-11-13T01:26:03.527Z,94.92
2018-11-13T01:31:00.891Z,94.49
2018-11-13T01:35:58.242Z,94.15
2018-11-13T01:40:55.630Z,93.91
2018-11-13T01:46:05.024Z,94.55
2018-11-13T01:51:02.443Z,94.45
2018-11-13T01:55:59.794Z,93.81
2018-11-13T02:00:57.160Z,93.96
2018-11-13T02:05:54.522Z,93.73
2018-11-13T02:10:51.878Z,93.98
2018-11-13T02:15:56.032Z,91.81
2018-11-13T02:20:53.546Z,92.45
2018-11-13T02:25:50.892Z,92.50
2018-11-13T02:30:48.245Z,94.23
2018-11-13T02:35:45.622Z,94.09
2018-11-13T02:40:43.075Z,95.01
2018-11-13T02:45:42.350Z,95.46
2018-11-13T02:50:39.806Z,95.71
2018-11-13T02:55:37.165Z,93.18
2018-11-13T03:00:34.539Z,91.97
2018-11-13T03:05:31.931Z,92.65
2018-11-13T03:10:29.300Z,92.09
2018-11-13T03:15:26.674Z,92.50
2018-11-13T03:20:24.076Z,94.48
2018-11-13T03:25:22.098Z,94.89
2018-11-13T03:30:24.547Z,95.42
2018-11-13T03:35:21.925Z,95.27
2018-11-13T03:40:19.382Z,95.50
2018-11-13T03:45:17.251Z,96.02
2018-11-13T03:50:15.839Z,95.97
2018-11-13T03:55:13.839Z,96.34
2018-11-13T04:00:13.150Z,96.12
2018-11-13T04:05:15.675Z,93.11
2018-11-13T04:10:14.129Z,93.22
2018-11-13T04:15:12.995Z,94.67
2018-11-13T04:20:12.260Z,95.26
2018-11-13T04:25:09.730Z,95.41
2018-11-13T04:30:09.560Z,95.87
2018-11-13T04:35:08.130Z,95.69
2018-11-13T04:40:08.938Z,95.95
2018-11-13T04:45:07.999Z,95.78
2018-11-13T04:50:06.812Z,94.87
2018-11-13T04:55:04.606Z,95.26
2018-11-13T05:00:02.096Z,95.58
2018-11-13T05:04:59.454Z,96.47
2018-11-13T05:09:56.831Z,96.52
2018-11-13T05:14:54.258Z,95.95
2018-11-13T05:19:52.164Z,96.36
2018-11-13T05:24:49.560Z,96.63
2018-11-13T05:29:46.916Z,96.22
2018-11-13T05:34:44.401Z,96.65
2018-11-13T05:39:41.795Z,96.46
2018-11-13T05:44:39.155Z,95.71
2018-11-13T05:49:36.517Z,95.94
2018-11-13T05:54:33.899Z,95.91
2018-11-13T05:59:31.335Z,95.74
2018-11-13T06:04:28.746Z,94.89
2018-11-13T06:09:26.136Z,94.61
2018-11-13T06:14:23.534Z,94.74
2018-11-13T06:19:20.955Z,94.23
2018-11-13T06:24:18.831Z,94.29
2018-11-13T06:29:16.216Z,93.95
2018-11-13T06:34:13.626Z,94.31
2018-11-13T06:39:12.863Z,93.69
2018-11-13T06:44:10.303Z,93.93
2018-11-13T06:49:07.768Z,94.67
2018-11-13T06:54:16.447Z,94.35
2018-11-13T06:59:13.841Z,93.45
2018-11-13T07:04:11.253Z,92.89
2018-11-13T07:09:09.220Z,92.82
2018-11-13T07:14:06.626Z,92.14
2018-11-13T07:19:04.563Z,92.84
2018-11-13T07:24:01.991Z,92.36
2018-11-13T07:29:00.019Z,92.03
2018-11-13T07:33:57.426Z,91.62
2018-11-13T07:38:54.823Z,91.21
2018-11-13T07:43:52.296Z,90.77
2018-11-13T07:48:49.776Z,90.71
2018-11-13T07:53:47.256Z,91.29
2018-11-13T07:58:44.714Z,90.82
2018-11-13T08:03:42.182Z,90.10
2018-11-13T08:08:39.561Z,90.40
2018-11-13T08:13:37.133Z,89.82
2018-11-13T08:18:34.436Z,89.00
2018-11-13T08:23:31.923Z,87.86
2018-11-13T08:28:29.364Z,87.31
2018-11-13T08:33:26.803Z,86.89
2018-11-13T08:38:24.247Z,86.25
2018-11-13T08:43:21.685Z,86.25
2018-11-13T08:48:19.169Z,85.22
2018-11-13T08:53:16.591Z,84.89
2018-11-13T08:58:13.979Z,83.46
2018-11-13T09:03:11.509Z,82.48
2018-11-13T09:08:09.784Z,81.46
2018-11-13T09:13:07.193Z,82.06
2018-11-13T09:18:05.002Z,81.07
2018-11-13T09:23:02.458Z,80.23
2018-11-13T09:27:59.842Z,80.87
2018-11-13T09:32:57.299Z,80.99
2018-11-13T09:37:54.708Z,80.89
2018-11-13T09:42:52.178Z,80.80
2018-11-13T09:47:49.645Z,80.33
2018-11-13T09:52:48.068Z,80.53
2018-11-13T09:57:45.482Z,79.59
2018-11-13T10:02:46.871Z,79.79
2018-11-13T10:07:44.137Z,77.42
2018-11-13T10:12:41.560Z,77.84
2018-11-13T10:17:39.173Z,78.07
2018-11-13T10:22:36.540Z,77.22
2018-11-13T10:27:34.003Z,77.87
2018-11-13T10:32:31.444Z,77.21
2018-11-13T10:37:28.867Z,76.96
2018-11-13T10:42:26.317Z,76.67
2018-11-13T10:47:23.737Z,78.17
2018-11-13T10:52:21.166Z,76.48
2018-11-13T10:57:18.586Z,76.10
2018-11-13T11:02:21.682Z,76.56
2018-11-13T11:07:19.175Z,76.41
2018-11-13T11:12:16.586Z,75.91
2018-11-13T11:17:13.999Z,75.38
2018-11-13T11:22:11.396Z,75.58
2018-11-13T11:27:08.807Z,74.39
2018-11-13T11:32:06.282Z,73.32
2018-11-13T11:37:03.895Z,73.49
2018-11-13T11:42:01.336Z,72.22
2018-11-13T11:46:58.741Z,71.18
2018-11-13T11:51:56.182Z,70.11
2018-11-13T11:56:53.590Z,69.74
2018-11-13T12:01:51.020Z,71.39
2018-11-13T12:06:48.434Z,73.54
2018-11-13T12:11:45.829Z,75.37
2018-11-13T12:16:43.239Z,75.90
2018-11-13T12:21:40.631Z,79.69
2018-11-13T12:26:38.022Z,82.71
2018-11-13T12:31:35.429Z,84.58
2018-11-13T12:36:32.936Z,87.40
2018-11-13T12:41:30.343Z,88.18
2018-11-13T12:46:27.768Z,89.95
2018-11-13T12:51:30.800Z,89.35
2018-11-13T12:56:28.406Z,89.40
2018-11-13T13:01:25.722Z,89.11
2018-11-13T13:06:23.175Z,89.15
2018-11-13T13:11:20.590Z,88.32
2018-11-13T13:16:17.978Z,87.23
2018-11-13T13:21:15.399Z,87.18
2018-11-13T13:26:12.804Z,84.82
2018-11-13T13:31:10.328Z,84.65
2018-11-13T13:36:07.734Z,84.21
2018-11-13T13:41:05.606Z,83.76
2018-11-13T13:46:03.039Z,81.70
2018-11-13T13:51:00.423Z,82.50
2018-11-13T13:55:57.910Z,80.53
2018-11-13T14:00:56.197Z,80.93
2018-11-13T14:05:57.282Z,79.94
2018-11-13T14:10:54.763Z,79.75
2018-11-13T14:15:52.170Z,78.88
2018-11-13T14:20:49.677Z,78.95
2018-11-13T14:25:47.106Z,78.18
2018-11-13T14:30:44.587Z,77.72
2018-11-13T14:35:47.190Z,78.28
2018-11-13T14:40:45.884Z,76.30
2018-11-13T14:45:43.657Z,75.55
2018-11-13T14:50:41.490Z,74.94
2018-11-13T14:55:40.678Z,74.78
2018-11-13T15:00:38.578Z,73.78
2018-11-13T15:05:40.639Z,74.67
2018-11-13T15:10:51.461Z,75.44
2018-11-13T15:15:48.889Z,74.76
2018-11-13T15:20:46.995Z,75.39
2018-11-13T15:25:44.418Z,75.31
2018-11-13T15:30:43.322Z,74.90
2018-11-13T15:35:40.742Z,75.64
2018-11-13T15:40:38.189Z,76.40
2018-11-13T15:45:35.612Z,76.16
2018-11-13T15:50:33.967Z,76.45
2018-11-13T15:55:31.384Z,74.90
2018-11-13T16:00:33.241Z,74.54
2018-11-13T16:05:32.175Z,75.32
2018-11-13T16:10:29.583Z,74.30
2018-11-13T16:15:27.553Z,74.43
2018-11-13T16:20:25.350Z,74.67
2018-11-13T16:25:22.799Z,74.32
2018-11-13T16:30:21.558Z,75.28
2018-11-13T16:35:21.036Z,75.68
2018-11-13T16:40:26.139Z,75.78
2018-11-13T16:45:24.294Z,76.24
2018-11-13T16:50:22.835Z,76.53
2018-11-13T16:55:25.894Z,75.69
2018-11-13T17:00:23.689Z,76.19
2018-11-13T17:05:38.899Z,76.77
2018-11-13T17:10:39.273Z,76.43
2018-11-13T17:15:36.731Z,76.20
2018-11-13T17:20:34.139Z,76.08
2018-11-13T17:25:33.007Z,76.58
2018-11-13T17:30:31.751Z,76.64
2018-11-13T17:35:38.587Z,77.52
2018-11-13T17:40:36.798Z,76.57
2018-11-13T17:45:36.536Z,77.21
2018-11-13T17:50:35.206Z,77.23
2018-11-13T17:55:32.600Z,77.05
2018-11-13T18:00:31.674Z,78.29
2018-11-13T18:05:36.397Z,78.16
2018-11-13T18:10:34.927Z,78.05
2018-11-13T18:15:32.350Z,78.47
2018-11-13T18:20:31.900Z,78.82
2018-11-13T18:25:29.596Z,78.97
2018-11-13T18:30:31.075Z,78.65
2018-11-13T18:35:30.520Z,79.34
2018-11-13T18:40:28.342Z,79.01
2018-11-13T18:45:28.185Z,79.92
2018-11-13T18:50:28.668Z,79.78
2018-11-13T18:55:26.154Z,80.95
2018-11-13T19:00:32.532Z,80.24
2018-11-13T19:05:29.919Z,81.02
2018-11-13T19:10:34.329Z,80.39
2018-11-13T19:15:33.638Z,80.72
2018-11-13T19:20:31.191Z,80.41
2018-11-13T19:25:29.955Z,81.05
2018-11-13T19:30:27.373Z,81.14
2018-11-13T19:35:24.957Z,80.91
2018-11-13T19:40:24.559Z,81.36
2018-11-13T19:45:22.118Z,81.19
2018-11-13T19:50:28.345Z,81.54
2018-11-13T19:55:26.362Z,81.27
2018-11-13T20:00:27.952Z,81.36
2018-11-13T20:05:27.263Z,82.16
2018-11-13T20:10:25.899Z,81.83
2018-11-13T20:15:27.368Z,82.30
2018-11-13T20:20:30.202Z,82.42
2018-11-13T20:25:33.232Z,81.87
2018-11-13T20:30:34.301Z,82.52
2018-11-13T20:35:31.699Z,82.92
2018-11-13T20:40:31.502Z,82.84
2018-11-13T20:45:29.264Z,83.48
2018-11-13T20:50:27.973Z,83.19
2018-11-13T20:55:25.557Z,83.72
2018-11-13T21:00:28.557Z,83.87
2018-11-13T21:05:27.011Z,83.92
2018-11-13T21:10:30.131Z,85.06
2018-11-13T21:15:30.450Z,83.45
2018-11-13T21:20:27.842Z,84.07
2018-11-13T21:25:26.003Z,84.87
2018-11-13T21:30:23.589Z,84.11
2018-11-13T21:35:22.296Z,84.34
2018-11-13T21:40:23.416Z,85.40
2018-11-13T21:45:21.935Z,85.02
2018-11-13T21:50:20.972Z,85.16
2018-11-13T21:55:20.556Z,86.60
2018-11-13T22:00:30.451Z,86.75
2018-11-13T22:05:29.841Z,86.48
2018-11-13T22:10:27.243Z,86.10
2018-11-13T22:15:25.807Z,86.72
2018-11-13T22:20:23.707Z,86.96
2018-11-13T22:25:22.635Z,87.31
2018-11-13T22:30:21.299Z,87.32
2018-11-13T22:35:21.033Z,87.00
2018-11-13T22:40:21.663Z,87.46
2018-11-13T22:45:20.466Z,87.14
2018-11-13T22:50:20.799Z,87.62
2018-11-13T22:55:20.198Z,86.43
2018-11-13T23:00:23.019Z,87.30
2018-11-13T23:05:21.765Z,87.43
2018-11-13T23:10:19.224Z,87.70
2018-11-13T23:15:18.281Z,87.87
2018-11-13T23:20:16.996Z,86.98
2018-11-13T23:25:15.590Z,88.38
2018-11-13T23:30:15.379Z,88.29
2018-11-13T23:35:14.366Z,88.98
2018-11-13T23:40:13.272Z,89.20
2018-11-13T23:45:11.353Z,88.14
2018-11-13T23:50:09.077Z,88.42
2018-11-13T23:55:07.981Z,89.25
